Home   Weather   Greece   Iráklion   Past weeks
Flag for Greece

Past Weather in Iráklion, Crete, Greece — Yesterday and Last 2 Weeks

Currently: 64 °F. Clear. (Weather station: Heraklion Airport, Greece). See more current weather

Past Weather in Iráklion — Graph

°F

Iráklion Temperature Yesterday

Maximum temperature yesterday: 73 °F (at 10:50 am)
Minimum temperature yesterday: 64 °F (at 5:20 am)
Average temperature yesterday: 69 °F

High & Low Weather Summary for the Past Weeks

 TemperatureHumidityPressure
High82 °F (Apr 2, 2:50 pm)88% (Apr 1, 4:20 am)30.15 "Hg (Apr 1, 4:20 am)
Low52 °F (Apr 4, 6:50 am)28% (Apr 2, 2:50 pm)29.89 "Hg (Apr 8, 3:50 am)
Average65 °F64%30.05 "Hg
* Reported Apr 1 4:20 am — Apr 16 4:20 am, Iráklion. Weather by CustomWeather, © 2024

Note: Actual official high and low records may vary slightly from our data, if they occured in-between our weather recording intervals... More about our weather records

Iráklion Weather History for the Previous 24 Hours

Scroll right to see more
 ConditionsComfort  
Time TempWeatherWind HumidityBarometerVisibility
4:20 am
Tue, Apr 16
64 °FClear.10 mph52%29.98 "Hg10 mi
3:50 am64 °FClear.6 mph52%29.98 "Hg10 mi
3:20 am64 °FClear.7 mph52%29.98 "Hg10 mi
2:50 am64 °FClear.7 mph52%29.98 "Hg10 mi
2:20 am64 °FClear.12 mph46%29.98 "Hg10 mi
1:50 am64 °FClear.12 mph46%30.01 "Hg10 mi
12:50 am63 °FClear.7 mph59%30.01 "Hg10 mi
12:20 am63 °FClear.8 mph59%30.01 "Hg10 mi
11:20 pm
Mon, Apr 15
64 °FClear.7 mph56%30.04 "Hg10 mi
10:50 pm64 °FClear.8 mph56%30.04 "Hg10 mi
10:20 pm64 °FClear.5 mph68%30.04 "Hg10 mi
9:50 pm64 °FClear.5 mph68%30.04 "Hg10 mi
9:20 pm64 °FClear.6 mph68%30.04 "Hg10 mi
8:50 pm64 °FClear.2 mph68%30.04 "Hg10 mi
8:20 pm66 °FClear.2 mph64%30.04 "Hg10 mi
7:50 pm70 °FSunny.3 mph60%30.04 "Hg10 mi
7:20 pm70 °FSunny.3 mph60%30.04 "Hg10 mi
6:50 pm73 °FSunny.5 mph53%30.04 "Hg10 mi
6:20 pm73 °FSunny.3 mph53%30.04 "Hg10 mi
5:50 pm73 °FSunny.5 mph53%30.04 "Hg10 mi
5:20 pm73 °FSunny.5 mph53%30.07 "Hg10 mi
4:20 pm73 °FSunny.6 mph57%30.07 "Hg10 mi
3:50 pm73 °FSunny.7 mph57%30.07 "Hg10 mi
3:20 pm73 °FSunny.8 mph53%30.09 "Hg10 mi
2:50 pm73 °FSunny.10 mph53%30.09 "Hg10 mi
2:20 pm73 °FSunny.9 mph53%30.09 "Hg10 mi
1:50 pm73 °FSunny.8 mph53%30.09 "Hg10 mi
1:20 pm73 °FSunny.7 mph53%30.09 "Hg10 mi
12:50 pm73 °FSunny.6 mph53%30.12 "Hg10 mi
12:20 pm73 °FSunny.5 mph61%30.12 "Hg10 mi
11:20 am73 °FSunny.6 mph53%30.12 "Hg10 mi
10:50 am73 °FSunny.8 mph53%30.12 "Hg10 mi
10:20 am72 °FSunny.10 mph53%30.12 "Hg10 mi
9:50 am72 °FSunny.10 mph53%30.12 "Hg10 mi
9:20 am70 °FSunny.9 mph53%30.12 "Hg10 mi
8:50 am70 °FSunny.3 mph53%30.12 "Hg10 mi
8:20 am66 °FSunny.3 mph60%30.12 "Hg10 mi
7:50 am66 °FSunny.3 mph60%30.12 "Hg10 mi
6:50 am64 °FSunny.7 mph73%30.09 "Hg10 mi
6:20 am64 °FClear.12 mph73%30.09 "Hg10 mi
5:50 am64 °FClear.7 mph73%30.09 "Hg10 mi
5:20 am64 °FClear.5 mph73%30.09 "Hg10 mi
Weather by CustomWeather, © 2024

See weather overview